Coral Favia — PHKM — position and weather

sailwx.info

Track history (hours):
 
Tides and Currents Weather Stations Pressure Air Temp Water Temp Dewpoint Dewpoint Depression Visibility Wind Speed Wind Dir Waves Ship Positions

Coral Favia

Last reported at 2015-May-26 04:33 UTC. Time now 2015-May-26 05:47 UTC.
Position N 36°37' W 008°54'.

Length 100 m; beam 17 m.

Type: Tanker. MMSI: 244627000.

Date/timePositionNaut miles runAvg speedWind from/ knotsBaromVisibWave heightAir tempDewpointWater temp
2015-May-26 04:33N 36°37' W 008°54'1414.2
2015-May-26 03:33N 36°33' W 008°37'1514.5
2015-May-26 02:33N 36°29' W 008°20'1414.3
2015-May-26 01:33N 36°25' W 008°03'1414.1
2015-May-26 00:32N 36°21' W 007°46'11313.7
2015-May-25 16:15N 35°59' W 005°28'811.5
2015-May-25 15:34N 35°55' W 005°20'2 1.9
2015-May-25 14:33N 35°54' W 005°18'0 0.0
2015-May-25 13:33N 35°54' W 005°18'0 0.0
2015-May-25 12:33N 35°54' W 005°18'0 0.0
2015-May-25 11:33N 35°54' W 005°18'0 0.0
2015-May-25 10:33N 35°54' W 005°18'0 0.0
2015-May-25 09:33N 35°54' W 005°18'0 0.0
2015-May-25 08:33N 35°54' W 005°18'3 3.3
2015-May-25 07:33N 35°56' W 005°21'  
2015-May-21 01:33N 38°41' W 010°12'1513.3
2015-May-21 00:27N 38°55' W 010°13'1313.2
2015-May-20 23:29N 39°08' W 010°13'  
2015-May-17 10:34N 38°26' W 009°57'1212.3
2015-May-17 09:33N 38°14' W 009°57'1212.3
2015-May-17 08:33N 38°02' W 009°57'1212.4
2015-May-17 07:33N 37°49' W 009°58'1212.5
2015-May-17 06:33N 37°37' W 009°58'1312.4
2015-May-17 05:32N 37°24' W 009°58'1512.7
2015-May-17 04:20N 37°09' W 009°58'1012.8
2015-May-17 03:34N 36°59' W 009°58'3812.4
2015-May-17 00:32N 36°21' W 009°59'1212.0
2015-May-16 23:33N 36°10' W 009°59'3611.9
2015-May-16 20:31N 35°34' W 009°60'1111.5
2015-May-16 19:34N 35°23' W 009°60'1211.6
2015-May-16 18:33N 35°11' W 009°60'  
Track history (hours):
 
Tides and Currents Weather Stations Pressure Air Temp Water Temp Dewpoint Dewpoint Depression Visibility Wind Speed Wind Dir Waves Ship Positions

Coral Favia

Last reported at 2015-May-26 04:33 UTC. Time now 2015-May-26 05:47 UTC.
Position N 36°37' W 008°54'.

Length 100 m; beam 17 m.

Type: Tanker. MMSI: 244627000.

Date/timePositionNaut miles runAvg speedWind from/ knotsBaromVisibWave heightAir tempDewpointWater temp
2015-May-26 04:33N 36°37' W 008°54'1414.2
2015-May-26 03:33N 36°33' W 008°37'1514.5
2015-May-26 02:33N 36°29' W 008°20'1414.3
2015-May-26 01:33N 36°25' W 008°03'1414.1
2015-May-26 00:32N 36°21' W 007°46'11313.7
2015-May-25 16:15N 35°59' W 005°28'811.5
2015-May-25 15:34N 35°55' W 005°20'2 1.9
2015-May-25 14:33N 35°54' W 005°18'0 0.0
2015-May-25 13:33N 35°54' W 005°18'0 0.0
2015-May-25 12:33N 35°54' W 005°18'0 0.0
2015-May-25 11:33N 35°54' W 005°18'0 0.0
2015-May-25 10:33N 35°54' W 005°18'0 0.0
2015-May-25 09:33N 35°54' W 005°18'0 0.0
2015-May-25 08:33N 35°54' W 005°18'3 3.3
2015-May-25 07:33N 35°56' W 005°21'  
2015-May-21 01:33N 38°41' W 010°12'1513.3
2015-May-21 00:27N 38°55' W 010°13'1313.2
2015-May-20 23:29N 39°08' W 010°13'  
2015-May-17 10:34N 38°26' W 009°57'1212.3
2015-May-17 09:33N 38°14' W 009°57'1212.3
2015-May-17 08:33N 38°02' W 009°57'1212.4
2015-May-17 07:33N 37°49' W 009°58'1212.5
2015-May-17 06:33N 37°37' W 009°58'1312.4
2015-May-17 05:32N 37°24' W 009°58'1512.7
2015-May-17 04:20N 37°09' W 009°58'1012.8
2015-May-17 03:34N 36°59' W 009°58'3812.4
2015-May-17 00:32N 36°21' W 009°59'1212.0
2015-May-16 23:33N 36°10' W 009°59'3611.9
2015-May-16 20:31N 35°34' W 009°60'1111.5
2015-May-16 19:34N 35°23' W 009°60'1211.6
2015-May-16 18:33N 35°11' W 009°60'  

Dump ship's entire track history